sensor_id;sensor_type;location;lat;lon;timestamp;P1;durP1;ratioP1;P2;durP2;ratioP2
74347;SDS011;62778;50.406;10.008;2022-12-18T00:00:13;8.27;;;3.40;;
74347;SDS011;62778;50.406;10.008;2022-12-18T00:01:42;8.32;;;2.90;;
74347;SDS011;62778;50.406;10.008;2022-12-18T00:02:31;8.27;;;2.88;;
74347;SDS011;62778;50.406;10.008;2022-12-18T00:03:26;6.70;;;2.60;;
74347;SDS011;62778;50.406;10.008;2022-12-18T00:04:22;7.82;;;2.95;;
74347;SDS011;62778;50.406;10.008;2022-12-18T00:05:19;8.80;;;3.10;;
74347;SDS011;62778;50.406;10.008;2022-12-18T00:06:14;8.10;;;3.22;;
74347;SDS011;62778;50.406;10.008;2022-12-18T00:07:10;8.93;;;3.47;;
74347;SDS011;62778;50.406;10.008;2022-12-18T00:08:06;10.05;;;4.22;;
74347;SDS011;62778;50.406;10.008;2022-12-18T00:09:02;6.93;;;3.30;;
74347;SDS011;62778;50.406;10.008;2022-12-18T00:09:58;10.02;;;4.18;;
74347;SDS011;62778;50.406;10.008;2022-12-18T00:10:53;10.27;;;4.50;;
74347;SDS011;62778;50.406;10.008;2022-12-18T00:11:48;10.37;;;4.43;;
74347;SDS011;62778;50.406;10.008;2022-12-18T00:12:44;9.77;;;4.00;;
74347;SDS011;62778;50.406;10.008;2022-12-18T00:13:39;7.63;;;3.70;;
74347;SDS011;62778;50.406;10.008;2022-12-18T00:14:35;9.88;;;4.13;;
74347;SDS011;62778;50.406;10.008;2022-12-18T00:15:33;9.37;;;4.00;;
74347;SDS011;62778;50.406;10.008;2022-12-18T00:16:29;10.65;;;4.10;;
74347;SDS011;62778;50.406;10.008;2022-12-18T00:17:27;9.07;;;3.95;;
74347;SDS011;62778;50.406;10.008;2022-12-18T00:18:23;8.63;;;3.72;;
74347;SDS011;62778;50.406;10.008;2022-12-18T00:19:18;7.72;;;3.55;;
74347;SDS011;62778;50.406;10.008;2022-12-18T00:20:13;9.43;;;3.50;;
74347;SDS011;62778;50.406;10.008;2022-12-18T00:21:09;7.63;;;2.83;;
74347;SDS011;62778;50.406;10.008;2022-12-18T00:22:06;8.82;;;3.60;;
74347;SDS011;62778;50.406;10.008;2022-12-18T00:23:01;9.33;;;3.13;;
74347;SDS011;62778;50.406;10.008;2022-12-18T00:23:56;9.23;;;3.00;;
74347;SDS011;62778;50.406;10.008;2022-12-18T00:24:52;6.28;;;2.80;;
74347;SDS011;62778;50.406;10.008;2022-12-18T00:25:47;10.90;;;3.60;;
74347;SDS011;62778;50.406;10.008;2022-12-18T00:26:43;9.27;;;3.90;;
74347;SDS011;62778;50.406;10.008;2022-12-18T00:27:38;8.60;;;3.78;;
74347;SDS011;62778;50.406;10.008;2022-12-18T00:28:33;10.87;;;4.40;;
74347;SDS011;62778;50.406;10.008;2022-12-18T00:29:29;8.90;;;4.17;;
74347;SDS011;62778;50.406;10.008;2022-12-18T00:30:24;9.57;;;4.30;;
74347;SDS011;62778;50.406;10.008;2022-12-18T00:31:20;10.50;;;4.07;;
74347;SDS011;62778;50.406;10.008;2022-12-18T00:32:17;9.40;;;4.63;;
74347;SDS011;62778;50.406;10.008;2022-12-18T00:33:13;10.65;;;4.18;;
74347;SDS011;62778;50.406;10.008;2022-12-18T00:34:10;8.57;;;4.10;;
74347;SDS011;62778;50.406;10.008;2022-12-18T00:35:06;11.13;;;5.05;;
74347;SDS011;62778;50.406;10.008;2022-12-18T00:36:03;12.88;;;5.10;;
74347;SDS011;62778;50.406;10.008;2022-12-18T00:36:59;11.63;;;4.90;;
74347;SDS011;62778;50.406;10.008;2022-12-18T00:37:54;10.73;;;4.80;;
74347;SDS011;62778;50.406;10.008;2022-12-18T00:38:50;10.03;;;4.30;;
74347;SDS011;62778;50.406;10.008;2022-12-18T00:39:47;9.80;;;4.00;;
74347;SDS011;62778;50.406;10.008;2022-12-18T00:40:43;11.60;;;4.50;;
74347;SDS011;62778;50.406;10.008;2022-12-18T00:41:38;9.63;;;4.63;;
74347;SDS011;62778;50.406;10.008;2022-12-18T00:42:53;11.05;;;4.80;;
74347;SDS011;62778;50.406;10.008;2022-12-18T00:43:51;13.27;;;5.47;;
74347;SDS011;62778;50.406;10.008;2022-12-18T00:44:46;12.73;;;4.87;;
74347;SDS011;62778;50.406;10.008;2022-12-18T00:45:41;13.15;;;5.30;;
74347;SDS011;62778;50.406;10.008;2022-12-18T00:46:36;11.70;;;5.37;;
74347;SDS011;62778;50.406;10.008;2022-12-18T00:47:32;10.93;;;4.87;;
74347;SDS011;62778;50.406;10.008;2022-12-18T00:48:27;11.23;;;4.80;;
74347;SDS011;62778;50.406;10.008;2022-12-18T00:49:22;12.37;;;5.33;;
74347;SDS011;62778;50.406;10.008;2022-12-18T00:50:18;11.07;;;5.07;;
74347;SDS011;62778;50.406;10.008;2022-12-18T00:51:13;12.47;;;5.80;;
74347;SDS011;62778;50.406;10.008;2022-12-18T00:52:09;12.57;;;5.90;;
74347;SDS011;62778;50.406;10.008;2022-12-18T00:53:04;13.48;;;5.68;;
74347;SDS011;62778;50.406;10.008;2022-12-18T00:54:00;12.80;;;5.50;;
74347;SDS011;62778;50.406;10.008;2022-12-18T00:54:55;11.70;;;5.00;;
74347;SDS011;62778;50.406;10.008;2022-12-18T00:55:50;13.85;;;5.38;;
74347;SDS011;62778;50.406;10.008;2022-12-18T00:56:46;10.30;;;4.37;;
74347;SDS011;62778;50.406;10.008;2022-12-18T00:57:41;9.87;;;3.90;;
74347;SDS011;62778;50.406;10.008;2022-12-18T00:58:37;11.23;;;5.20;;
74347;SDS011;62778;50.406;10.008;2022-12-18T00:59:32;9.35;;;4.35;;
74347;SDS011;62778;50.406;10.008;2022-12-18T01:00:27;8.57;;;3.97;;
74347;SDS011;62778;50.406;10.008;2022-12-18T01:01:23;10.03;;;3.83;;
74347;SDS011;62778;50.406;10.008;2022-12-18T01:02:18;11.90;;;4.80;;
74347;SDS011;62778;50.406;10.008;2022-12-18T01:03:13;10.55;;;4.65;;
74347;SDS011;62778;50.406;10.008;2022-12-18T01:04:09;9.67;;;4.67;;
74347;SDS011;62778;50.406;10.008;2022-12-18T01:05:04;12.17;;;5.47;;
74347;SDS011;62778;50.406;10.008;2022-12-18T01:06:05;12.85;;;5.13;;
74347;SDS011;62778;50.406;10.008;2022-12-18T01:07:01;13.60;;;5.30;;
74347;SDS011;62778;50.406;10.008;2022-12-18T01:07:56;11.37;;;4.80;;
74347;SDS011;62778;50.406;10.008;2022-12-18T01:08:52;12.55;;;5.25;;
74347;SDS011;62778;50.406;10.008;2022-12-18T01:09:47;13.30;;;5.57;;
74347;SDS011;62778;50.406;10.008;2022-12-18T01:10:43;11.97;;;4.90;;
74347;SDS011;62778;50.406;10.008;2022-12-18T01:11:38;10.53;;;5.53;;
74347;SDS011;62778;50.406;10.008;2022-12-18T01:12:34;11.20;;;4.57;;
74347;SDS011;62778;50.406;10.008;2022-12-18T01:13:30;10.17;;;3.77;;
74347;SDS011;62778;50.406;10.008;2022-12-18T01:14:25;11.05;;;4.35;;
74347;SDS011;62778;50.406;10.008;2022-12-18T01:15:20;8.90;;;3.90;;
74347;SDS011;62778;50.406;10.008;2022-12-18T01:16:16;10.63;;;4.63;;
74347;SDS011;62778;50.406;10.008;2022-12-18T01:17:12;9.20;;;4.30;;
74347;SDS011;62778;50.406;10.008;2022-12-18T01:18:07;7.30;;;3.70;;
74347;SDS011;62778;50.406;10.008;2022-12-18T01:19:02;6.60;;;2.70;;
74347;SDS011;62778;50.406;10.008;2022-12-18T01:19:58;5.93;;;2.60;;
74347;SDS011;62778;50.406;10.008;2022-12-18T01:20:53;8.95;;;3.10;;
74347;SDS011;62778;50.406;10.008;2022-12-18T01:21:48;7.67;;;3.13;;
74347;SDS011;62778;50.406;10.008;2022-12-18T01:22:44;8.17;;;3.70;;
74347;SDS011;62778;50.406;10.008;2022-12-18T01:23:39;9.23;;;4.10;;
74347;SDS011;62778;50.406;10.008;2022-12-18T01:24:35;10.10;;;3.63;;
74347;SDS011;62778;50.406;10.008;2022-12-18T01:25:30;8.07;;;3.47;;
74347;SDS011;62778;50.406;10.008;2022-12-18T01:26:26;10.45;;;4.32;;
74347;SDS011;62778;50.406;10.008;2022-12-18T01:27:24;10.27;;;4.15;;
74347;SDS011;62778;50.406;10.008;2022-12-18T01:28:19;11.03;;;4.60;;
74347;SDS011;62778;50.406;10.008;2022-12-18T01:29:15;14.73;;;4.90;;
74347;SDS011;62778;50.406;10.008;2022-12-18T01:30:10;7.87;;;3.87;;
74347;SDS011;62778;50.406;10.008;2022-12-18T01:32:11;9.10;;;3.53;;
74347;SDS011;62778;50.406;10.008;2022-12-18T01:33:06;10.20;;;3.77;;
74347;SDS011;62778;50.406;10.008;2022-12-18T01:34:02;9.30;;;3.70;;
74347;SDS011;62778;50.406;10.008;2022-12-18T01:34:58;10.98;;;4.10;;
74347;SDS011;62778;50.406;10.008;2022-12-18T01:35:54;10.93;;;5.03;;
74347;SDS011;62778;50.406;10.008;2022-12-18T01:36:49;11.73;;;4.93;;
74347;SDS011;62778;50.406;10.008;2022-12-18T01:37:47;11.02;;;5.00;;
74347;SDS011;62778;50.406;10.008;2022-12-18T01:38:42;11.25;;;5.20;;
74347;SDS011;62778;50.406;10.008;2022-12-18T01:39:37;10.85;;;5.03;;
74347;SDS011;62778;50.406;10.008;2022-12-18T01:40:33;8.03;;;3.80;;
74347;SDS011;62778;50.406;10.008;2022-12-18T01:41:29;11.47;;;4.33;;
74347;SDS011;62778;50.406;10.008;2022-12-18T01:42:43;12.43;;;4.47;;
74347;SDS011;62778;50.406;10.008;2022-12-18T01:46:08;9.48;;;4.43;;
74347;SDS011;62778;50.406;10.008;2022-12-18T01:47:04;13.80;;;4.43;;
74347;SDS011;62778;50.406;10.008;2022-12-18T01:48:03;9.87;;;4.13;;
74347;SDS011;62778;50.406;10.008;2022-12-18T01:49:01;9.70;;;4.10;;
74347;SDS011;62778;50.406;10.008;2022-12-18T01:49:57;9.32;;;4.10;;
74347;SDS011;62778;50.406;10.008;2022-12-18T01:50:56;9.93;;;3.40;;
74347;SDS011;62778;50.406;10.008;2022-12-18T01:51:51;9.93;;;4.05;;
74347;SDS011;62778;50.406;10.008;2022-12-18T01:52:48;10.52;;;4.30;;
74347;SDS011;62778;50.406;10.008;2022-12-18T01:53:45;10.50;;;4.57;;
74347;SDS011;62778;50.406;10.008;2022-12-18T01:54:41;11.97;;;4.77;;
74347;SDS011;62778;50.406;10.008;2022-12-18T01:55:46;11.48;;;4.30;;
74347;SDS011;62778;50.406;10.008;2022-12-18T01:56:44;11.15;;;3.90;;
74347;SDS011;62778;50.406;10.008;2022-12-18T01:57:39;10.50;;;4.40;;
74347;SDS011;62778;50.406;10.008;2022-12-18T01:58:37;11.15;;;4.40;;
74347;SDS011;62778;50.406;10.008;2022-12-18T01:59:41;9.23;;;3.67;;
74347;SDS011;62778;50.406;10.008;2022-12-18T02:00:38;8.80;;;3.60;;
74347;SDS011;62778;50.406;10.008;2022-12-18T02:01:33;8.95;;;3.90;;
74347;SDS011;62778;50.406;10.008;2022-12-18T02:02:29;8.05;;;3.40;;
74347;SDS011;62778;50.406;10.008;2022-12-18T02:03:25;6.53;;;2.90;;
74347;SDS011;62778;50.406;10.008;2022-12-18T02:04:21;7.37;;;3.10;;
74347;SDS011;62778;50.406;10.008;2022-12-18T02:05:18;8.02;;;2.70;;
74347;SDS011;62778;50.406;10.008;2022-12-18T02:06:18;11.60;;;3.90;;
74347;SDS011;62778;50.406;10.008;2022-12-18T02:09:20;10.40;;;4.40;;
74347;SDS011;62778;50.406;10.008;2022-12-18T02:10:24;10.85;;;5.00;;
74347;SDS011;62778;50.406;10.008;2022-12-18T02:12:45;10.00;;;3.95;;
74347;SDS011;62778;50.406;10.008;2022-12-18T02:17:28;6.82;;;2.88;;
74347;SDS011;62778;50.406;10.008;2022-12-18T02:18:30;9.05;;;2.80;;
74347;SDS011;62778;50.406;10.008;2022-12-18T02:20:36;8.00;;;3.15;;
74347;SDS011;62778;50.406;10.008;2022-12-18T02:21:54;9.18;;;3.25;;
74347;SDS011;62778;50.406;10.008;2022-12-18T02:26:57;8.65;;;3.10;;
74347;SDS011;62778;50.406;10.008;2022-12-18T02:27:54;7.82;;;3.38;;
74347;SDS011;62778;50.406;10.008;2022-12-18T02:28:56;8.43;;;3.80;;
74347;SDS011;62778;50.406;10.008;2022-12-18T02:29:55;9.52;;;4.03;;
74347;SDS011;62778;50.406;10.008;2022-12-18T02:30:50;10.40;;;4.10;;
74347;SDS011;62778;50.406;10.008;2022-12-18T02:31:50;11.07;;;4.72;;
74347;SDS011;62778;50.406;10.008;2022-12-18T02:32:50;9.70;;;4.47;;
74347;SDS011;62778;50.406;10.008;2022-12-18T02:33:47;7.57;;;3.78;;
74347;SDS011;62778;50.406;10.008;2022-12-18T02:34:44;8.95;;;4.13;;
74347;SDS011;62778;50.406;10.008;2022-12-18T02:35:40;9.45;;;3.88;;
74347;SDS011;62778;50.406;10.008;2022-12-18T02:36:37;9.02;;;3.88;;
74347;SDS011;62778;50.406;10.008;2022-12-18T02:37:33;9.18;;;3.70;;
74347;SDS011;62778;50.406;10.008;2022-12-18T02:38:30;9.27;;;4.07;;
74347;SDS011;62778;50.406;10.008;2022-12-18T02:39:26;10.27;;;3.93;;
74347;SDS011;62778;50.406;10.008;2022-12-18T02:40:23;12.43;;;4.80;;
74347;SDS011;62778;50.406;10.008;2022-12-18T02:41:19;10.57;;;4.03;;
74347;SDS011;62778;50.406;10.008;2022-12-18T02:42:16;11.23;;;4.30;;
74347;SDS011;62778;50.406;10.008;2022-12-18T02:43:13;10.68;;;4.05;;
74347;SDS011;62778;50.406;10.008;2022-12-18T02:44:10;10.47;;;4.40;;
74347;SDS011;62778;50.406;10.008;2022-12-18T02:45:07;8.85;;;3.83;;
74347;SDS011;62778;50.406;10.008;2022-12-18T02:47:32;10.07;;;4.35;;
74347;SDS011;62778;50.406;10.008;2022-12-18T02:48:31;9.75;;;4.18;;
74347;SDS011;62778;50.406;10.008;2022-12-18T02:49:40;9.57;;;3.97;;
74347;SDS011;62778;50.406;10.008;2022-12-18T02:51:46;13.02;;;4.85;;
74347;SDS011;62778;50.406;10.008;2022-12-18T02:53:45;10.52;;;4.55;;
74347;SDS011;62778;50.406;10.008;2022-12-18T02:56:03;12.83;;;5.57;;
74347;SDS011;62778;50.406;10.008;2022-12-18T02:57:09;11.93;;;4.85;;
74347;SDS011;62778;50.406;10.008;2022-12-18T02:58:19;12.82;;;5.10;;
74347;SDS011;62778;50.406;10.008;2022-12-18T02:59:51;13.30;;;5.80;;
74347;SDS011;62778;50.406;10.008;2022-12-18T03:00:58;13.30;;;5.47;;
74347;SDS011;62778;50.406;10.008;2022-12-18T03:01:58;11.00;;;4.95;;
74347;SDS011;62778;50.406;10.008;2022-12-18T03:02:59;11.25;;;4.65;;
74347;SDS011;62778;50.406;10.008;2022-12-18T03:04:47;11.20;;;5.13;;
74347;SDS011;62778;50.406;10.008;2022-12-18T03:05:27;11.82;;;4.95;;
74347;SDS011;62778;50.406;10.008;2022-12-18T03:06:40;11.50;;;5.03;;
74347;SDS011;62778;50.406;10.008;2022-12-18T03:09:07;15.20;;;6.72;;
74347;SDS011;62778;50.406;10.008;2022-12-18T03:10:05;12.63;;;5.88;;
74347;SDS011;62778;50.406;10.008;2022-12-18T03:11:09;15.02;;;6.10;;
74347;SDS011;62778;50.406;10.008;2022-12-18T03:12:15;12.20;;;4.70;;
74347;SDS011;62778;50.406;10.008;2022-12-18T03:13:23;13.70;;;5.40;;
74347;SDS011;62778;50.406;10.008;2022-12-18T03:14:22;13.63;;;6.05;;
74347;SDS011;62778;50.406;10.008;2022-12-18T03:15:27;14.57;;;5.53;;
74347;SDS011;62778;50.406;10.008;2022-12-18T03:16:26;12.75;;;4.88;;
74347;SDS011;62778;50.406;10.008;2022-12-18T03:17:24;10.77;;;4.88;;
74347;SDS011;62778;50.406;10.008;2022-12-18T03:18:25;11.63;;;4.83;;
74347;SDS011;62778;50.406;10.008;2022-12-18T03:19:25;11.40;;;4.90;;
74347;SDS011;62778;50.406;10.008;2022-12-18T03:20:22;10.90;;;4.97;;
74347;SDS011;62778;50.406;10.008;2022-12-18T03:21:21;12.68;;;6.15;;
74347;SDS011;62778;50.406;10.008;2022-12-18T03:22:19;11.15;;;4.90;;
74347;SDS011;62778;50.406;10.008;2022-12-18T03:23:19;11.88;;;5.32;;
74347;SDS011;62778;50.406;10.008;2022-12-18T03:24:16;11.90;;;5.05;;
74347;SDS011;62778;50.406;10.008;2022-12-18T03:25:13;12.27;;;5.20;;
74347;SDS011;62778;50.406;10.008;2022-12-18T03:26:10;14.20;;;5.43;;
74347;SDS011;62778;50.406;10.008;2022-12-18T03:27:09;12.88;;;5.63;;
74347;SDS011;62778;50.406;10.008;2022-12-18T03:28:09;16.02;;;7.13;;
74347;SDS011;62778;50.406;10.008;2022-12-18T03:29:09;12.00;;;5.43;;
74347;SDS011;62778;50.406;10.008;2022-12-18T03:30:13;17.08;;;7.40;;
74347;SDS011;62778;50.406;10.008;2022-12-18T03:31:09;17.00;;;6.93;;
74347;SDS011;62778;50.406;10.008;2022-12-18T03:32:10;17.38;;;7.13;;
74347;SDS011;62778;50.406;10.008;2022-12-18T03:33:08;14.02;;;6.03;;
74347;SDS011;62778;50.406;10.008;2022-12-18T03:34:12;18.05;;;6.35;;
74347;SDS011;62778;50.406;10.008;2022-12-18T03:35:10;12.07;;;5.28;;
74347;SDS011;62778;50.406;10.008;2022-12-18T03:36:08;12.63;;;5.30;;
74347;SDS011;62778;50.406;10.008;2022-12-18T03:37:04;12.00;;;5.00;;
74347;SDS011;62778;50.406;10.008;2022-12-18T03:38:00;12.30;;;5.03;;
74347;SDS011;62778;50.406;10.008;2022-12-18T03:38:55;11.65;;;4.88;;
74347;SDS011;62778;50.406;10.008;2022-12-18T03:39:51;10.70;;;4.20;;
74347;SDS011;62778;50.406;10.008;2022-12-18T03:42:05;12.10;;;4.85;;
74347;SDS011;62778;50.406;10.008;2022-12-18T03:43:03;9.98;;;3.80;;
74347;SDS011;62778;50.406;10.008;2022-12-18T03:45:15;12.20;;;5.07;;
74347;SDS011;62778;50.406;10.008;2022-12-18T03:48:27;12.85;;;6.30;;
74347;SDS011;62778;50.406;10.008;2022-12-18T03:49:29;13.98;;;6.28;;
74347;SDS011;62778;50.406;10.008;2022-12-18T03:51:48;13.43;;;5.63;;
74347;SDS011;62778;50.406;10.008;2022-12-18T03:52:48;14.70;;;6.32;;
74347;SDS011;62778;50.406;10.008;2022-12-18T03:54:53;14.18;;;6.22;;
74347;SDS011;62778;50.406;10.008;2022-12-18T03:55:50;16.48;;;6.45;;
74347;SDS011;62778;50.406;10.008;2022-12-18T03:56:47;14.37;;;6.43;;
74347;SDS011;62778;50.406;10.008;2022-12-18T03:57:44;14.93;;;6.20;;
74347;SDS011;62778;50.406;10.008;2022-12-18T03:58:41;13.48;;;5.43;;
74347;SDS011;62778;50.406;10.008;2022-12-18T03:59:37;12.93;;;6.60;;
74347;SDS011;62778;50.406;10.008;2022-12-18T04:00:33;12.82;;;5.40;;
74347;SDS011;62778;50.406;10.008;2022-12-18T04:01:33;12.35;;;5.10;;
74347;SDS011;62778;50.406;10.008;2022-12-18T04:02:30;12.47;;;5.77;;
74347;SDS011;62778;50.406;10.008;2022-12-18T04:03:26;11.32;;;5.25;;
74347;SDS011;62778;50.406;10.008;2022-12-18T04:04:23;14.13;;;6.53;;
74347;SDS011;62778;50.406;10.008;2022-12-18T04:05:20;13.95;;;6.10;;
74347;SDS011;62778;50.406;10.008;2022-12-18T04:06:16;11.82;;;5.47;;
74347;SDS011;62778;50.406;10.008;2022-12-18T04:07:12;15.48;;;6.88;;
74347;SDS011;62778;50.406;10.008;2022-12-18T04:08:08;17.60;;;6.63;;
74347;SDS011;62778;50.406;10.008;2022-12-18T04:09:04;16.10;;;7.83;;
74347;SDS011;62778;50.406;10.008;2022-12-18T04:09:59;17.35;;;7.35;;
74347;SDS011;62778;50.406;10.008;2022-12-18T04:10:56;14.77;;;7.10;;
74347;SDS011;62778;50.406;10.008;2022-12-18T04:11:51;16.50;;;7.50;;
74347;SDS011;62778;50.406;10.008;2022-12-18T04:12:47;16.37;;;7.53;;
74347;SDS011;62778;50.406;10.008;2022-12-18T04:13:42;17.75;;;8.00;;
74347;SDS011;62778;50.406;10.008;2022-12-18T04:14:38;17.17;;;7.80;;
74347;SDS011;62778;50.406;10.008;2022-12-18T04:15:34;15.70;;;7.97;;
74347;SDS011;62778;50.406;10.008;2022-12-18T04:16:29;18.63;;;7.45;;
74347;SDS011;62778;50.406;10.008;2022-12-18T04:17:25;15.70;;;6.68;;
74347;SDS011;62778;50.406;10.008;2022-12-18T04:18:20;15.50;;;6.77;;
74347;SDS011;62778;50.406;10.008;2022-12-18T04:19:15;16.10;;;6.20;;
74347;SDS011;62778;50.406;10.008;2022-12-18T04:20:11;14.97;;;6.63;;
74347;SDS011;62778;50.406;10.008;2022-12-18T04:21:06;15.32;;;6.03;;
74347;SDS011;62778;50.406;10.008;2022-12-18T04:22:02;13.17;;;5.50;;
74347;SDS011;62778;50.406;10.008;2022-12-18T04:22:57;12.17;;;6.10;;
74347;SDS011;62778;50.406;10.008;2022-12-18T04:23:52;12.90;;;5.93;;
74347;SDS011;62778;50.406;10.008;2022-12-18T04:24:48;16.27;;;6.30;;
74347;SDS011;62778;50.406;10.008;2022-12-18T04:25:43;14.77;;;6.35;;
74347;SDS011;62778;50.406;10.008;2022-12-18T04:26:38;13.80;;;6.07;;
74347;SDS011;62778;50.406;10.008;2022-12-18T04:27:34;12.97;;;5.50;;
74347;SDS011;62778;50.406;10.008;2022-12-18T04:28:29;12.73;;;5.27;;
74347;SDS011;62778;50.406;10.008;2022-12-18T04:29:24;13.70;;;5.95;;
74347;SDS011;62778;50.406;10.008;2022-12-18T04:30:20;13.53;;;5.87;;
74347;SDS011;62778;50.406;10.008;2022-12-18T04:31:15;12.63;;;5.17;;
74347;SDS011;62778;50.406;10.008;2022-12-18T04:32:10;13.30;;;5.00;;
74347;SDS011;62778;50.406;10.008;2022-12-18T04:33:09;12.03;;;5.37;;
74347;SDS011;62778;50.406;10.008;2022-12-18T04:34:05;12.27;;;5.10;;
74347;SDS011;62778;50.406;10.008;2022-12-18T04:35:01;13.60;;;5.70;;
74347;SDS011;62778;50.406;10.008;2022-12-18T04:35:56;13.82;;;5.32;;
74347;SDS011;62778;50.406;10.008;2022-12-18T04:36:52;14.03;;;6.03;;
74347;SDS011;62778;50.406;10.008;2022-12-18T04:37:47;16.02;;;6.55;;
74347;SDS011;62778;50.406;10.008;2022-12-18T04:38:42;13.85;;;6.45;;
74347;SDS011;62778;50.406;10.008;2022-12-18T04:39:38;14.30;;;6.27;;
74347;SDS011;62778;50.406;10.008;2022-12-18T04:40:33;13.73;;;6.40;;
74347;SDS011;62778;50.406;10.008;2022-12-18T04:41:29;16.85;;;7.47;;
74347;SDS011;62778;50.406;10.008;2022-12-18T04:42:24;16.10;;;7.20;;
74347;SDS011;62778;50.406;10.008;2022-12-18T04:43:19;16.07;;;7.03;;
74347;SDS011;62778;50.406;10.008;2022-12-18T04:44:15;17.80;;;7.37;;
74347;SDS011;62778;50.406;10.008;2022-12-18T04:45:10;13.13;;;6.50;;
74347;SDS011;62778;50.406;10.008;2022-12-18T04:46:06;18.17;;;8.47;;
74347;SDS011;62778;50.406;10.008;2022-12-18T04:47:03;15.60;;;7.22;;
74347;SDS011;62778;50.406;10.008;2022-12-18T04:47:58;16.07;;;7.30;;
74347;SDS011;62778;50.406;10.008;2022-12-18T04:48:54;17.25;;;6.95;;
74347;SDS011;62778;50.406;10.008;2022-12-18T04:49:50;14.50;;;7.20;;
74347;SDS011;62778;50.406;10.008;2022-12-18T04:50:46;15.13;;;7.43;;
74347;SDS011;62778;50.406;10.008;2022-12-18T04:51:41;16.65;;;6.80;;
74347;SDS011;62778;50.406;10.008;2022-12-18T04:52:37;15.27;;;7.20;;
74347;SDS011;62778;50.406;10.008;2022-12-18T04:53:32;17.50;;;7.43;;
74347;SDS011;62778;50.406;10.008;2022-12-18T04:54:28;16.63;;;7.83;;
74347;SDS011;62778;50.406;10.008;2022-12-18T04:55:23;17.67;;;7.50;;
74347;SDS011;62778;50.406;10.008;2022-12-18T04:56:18;17.93;;;7.73;;
74347;SDS011;62778;50.406;10.008;2022-12-18T04:57:14;18.20;;;8.20;;
74347;SDS011;62778;50.406;10.008;2022-12-18T04:58:09;14.63;;;7.13;;
74347;SDS011;62778;50.406;10.008;2022-12-18T04:59:04;13.50;;;5.97;;
74347;SDS011;62778;50.406;10.008;2022-12-18T05:00:00;14.95;;;7.00;;
74347;SDS011;62778;50.406;10.008;2022-12-18T05:00:55;14.97;;;6.43;;
74347;SDS011;62778;50.406;10.008;2022-12-18T05:01:51;14.93;;;6.47;;
74347;SDS011;62778;50.406;10.008;2022-12-18T05:02:46;15.65;;;6.38;;
74347;SDS011;62778;50.406;10.008;2022-12-18T05:03:41;14.40;;;6.63;;
74347;SDS011;62778;50.406;10.008;2022-12-18T05:04:37;15.65;;;6.30;;
74347;SDS011;62778;50.406;10.008;2022-12-18T05:05:34;15.00;;;6.53;;
74347;SDS011;62778;50.406;10.008;2022-12-18T05:06:30;14.70;;;6.10;;
74347;SDS011;62778;50.406;10.008;2022-12-18T05:07:25;11.57;;;5.03;;
74347;SDS011;62778;50.406;10.008;2022-12-18T05:08:20;12.00;;;5.20;;
74347;SDS011;62778;50.406;10.008;2022-12-18T05:09:16;13.63;;;5.73;;
74347;SDS011;62778;50.406;10.008;2022-12-18T05:10:11;17.67;;;7.07;;
74347;SDS011;62778;50.406;10.008;2022-12-18T05:11:11;13.85;;;5.85;;
74347;SDS011;62778;50.406;10.008;2022-12-18T05:12:08;15.95;;;6.82;;
74347;SDS011;62778;50.406;10.008;2022-12-18T05:13:04;17.53;;;7.90;;
74347;SDS011;62778;50.406;10.008;2022-12-18T05:13:59;19.27;;;9.00;;
74347;SDS011;62778;50.406;10.008;2022-12-18T05:14:54;17.83;;;7.90;;
74347;SDS011;62778;50.406;10.008;2022-12-18T05:15:53;16.97;;;7.93;;
74347;SDS011;62778;50.406;10.008;2022-12-18T05:16:49;18.23;;;8.15;;
74347;SDS011;62778;50.406;10.008;2022-12-18T05:17:44;16.07;;;8.30;;
74347;SDS011;62778;50.406;10.008;2022-12-18T05:18:40;19.30;;;8.80;;
74347;SDS011;62778;50.406;10.008;2022-12-18T05:19:35;17.50;;;8.35;;
74347;SDS011;62778;50.406;10.008;2022-12-18T05:20:31;16.13;;;8.00;;
74347;SDS011;62778;50.406;10.008;2022-12-18T05:21:26;18.63;;;8.40;;
74347;SDS011;62778;50.406;10.008;2022-12-18T05:22:21;19.40;;;8.20;;
74347;SDS011;62778;50.406;10.008;2022-12-18T05:23:17;18.48;;;9.00;;
74347;SDS011;62778;50.406;10.008;2022-12-18T05:24:12;17.53;;;8.23;;
74347;SDS011;62778;50.406;10.008;2022-12-18T05:25:08;14.40;;;6.77;;
74347;SDS011;62778;50.406;10.008;2022-12-18T05:26:04;17.52;;;8.13;;
74347;SDS011;62778;50.406;10.008;2022-12-18T05:27:00;17.83;;;8.32;;
74347;SDS011;62778;50.406;10.008;2022-12-18T05:27:56;18.55;;;8.18;;
74347;SDS011;62778;50.406;10.008;2022-12-18T05:28:51;15.67;;;7.80;;
74347;SDS011;62778;50.406;10.008;2022-12-18T05:29:46;16.90;;;8.10;;
74347;SDS011;62778;50.406;10.008;2022-12-18T05:30:41;18.60;;;8.13;;
74347;SDS011;62778;50.406;10.008;2022-12-18T05:31:37;15.83;;;7.43;;
74347;SDS011;62778;50.406;10.008;2022-12-18T05:32:33;15.48;;;7.40;;
74347;SDS011;62778;50.406;10.008;2022-12-18T05:33:30;15.73;;;6.70;;
74347;SDS011;62778;50.406;10.008;2022-12-18T05:34:27;17.40;;;7.37;;
74347;SDS011;62778;50.406;10.008;2022-12-18T05:35:22;20.38;;;8.57;;
74347;SDS011;62778;50.406;10.008;2022-12-18T05:36:17;16.53;;;8.17;;
74347;SDS011;62778;50.406;10.008;2022-12-18T05:37:13;18.20;;;7.67;;
74347;SDS011;62778;50.406;10.008;2022-12-18T05:38:08;16.47;;;8.47;;
74347;SDS011;62778;50.406;10.008;2022-12-18T05:39:03;19.33;;;9.63;;
74347;SDS011;62778;50.406;10.008;2022-12-18T05:39:59;21.13;;;9.30;;
74347;SDS011;62778;50.406;10.008;2022-12-18T05:40:54;19.10;;;9.43;;
74347;SDS011;62778;50.406;10.008;2022-12-18T05:41:50;24.90;;;10.73;;
74347;SDS011;62778;50.406;10.008;2022-12-18T05:42:45;21.70;;;9.93;;
74347;SDS011;62778;50.406;10.008;2022-12-18T05:43:40;21.37;;;10.70;;
74347;SDS011;62778;50.406;10.008;2022-12-18T05:44:36;21.55;;;9.57;;
74347;SDS011;62778;50.406;10.008;2022-12-18T05:45:32;19.13;;;9.33;;
74347;SDS011;62778;50.406;10.008;2022-12-18T05:46:27;22.67;;;10.00;;
74347;SDS011;62778;50.406;10.008;2022-12-18T05:47:22;22.92;;;10.05;;
74347;SDS011;62778;50.406;10.008;2022-12-18T05:48:18;21.73;;;9.63;;
74347;SDS011;62778;50.406;10.008;2022-12-18T05:49:14;23.30;;;9.00;;
74347;SDS011;62778;50.406;10.008;2022-12-18T05:50:09;19.73;;;7.53;;
74347;SDS011;62778;50.406;10.008;2022-12-18T05:51:05;19.27;;;7.93;;
74347;SDS011;62778;50.406;10.008;2022-12-18T05:52:05;18.80;;;7.80;;
74347;SDS011;62778;50.406;10.008;2022-12-18T05:53:00;14.37;;;7.23;;
74347;SDS011;62778;50.406;10.008;2022-12-18T05:53:56;15.53;;;6.93;;
74347;SDS011;62778;50.406;10.008;2022-12-18T05:54:51;20.15;;;8.23;;
74347;SDS011;62778;50.406;10.008;2022-12-18T05:55:47;21.17;;;9.43;;
74347;SDS011;62778;50.406;10.008;2022-12-18T05:56:42;19.25;;;8.75;;
74347;SDS011;62778;50.406;10.008;2022-12-18T05:57:38;19.85;;;9.48;;
74347;SDS011;62778;50.406;10.008;2022-12-18T05:58:33;22.80;;;9.70;;
74347;SDS011;62778;50.406;10.008;2022-12-18T05:59:29;18.50;;;9.03;;
74347;SDS011;62778;50.406;10.008;2022-12-18T06:00:24;23.27;;;9.85;;
74347;SDS011;62778;50.406;10.008;2022-12-18T06:01:22;22.10;;;10.13;;
74347;SDS011;62778;50.406;10.008;2022-12-18T06:02:19;19.92;;;8.20;;
74347;SDS011;62778;50.406;10.008;2022-12-18T06:03:16;20.55;;;9.07;;
74347;SDS011;62778;50.406;10.008;2022-12-18T06:04:11;19.65;;;8.95;;